createdAt,value
2023-04-24T00:01:35.102Z,0.20
2023-04-24T00:06:39.628Z,0.10
2023-04-24T00:11:43.656Z,0.20
2023-04-24T00:16:48.148Z,0.10
2023-04-24T00:21:51.859Z,0.40
2023-04-24T00:26:54.978Z,0.10
2023-04-24T00:31:59.635Z,0.20
2023-04-24T00:37:03.056Z,0.20
2023-04-24T00:42:07.344Z,0.20
2023-04-24T00:47:12.883Z,0.10
2023-04-24T00:52:18.641Z,0.10
2023-04-24T00:57:22.727Z,0.10
2023-04-24T01:02:28.050Z,0.17
2023-04-24T01:07:31.890Z,0.10
2023-04-24T01:12:35.062Z,0.17
2023-04-24T01:17:40.278Z,0.20
2023-04-24T01:22:44.978Z,0.10
2023-04-24T01:27:48.536Z,0.10
2023-04-24T01:32:51.959Z,0.10
2023-04-24T01:37:56.749Z,0.30
2023-04-24T01:43:00.450Z,0.30
2023-04-24T01:48:03.723Z,0.20
2023-04-24T01:53:08.498Z,0.20
2023-04-24T01:58:12.938Z,0.30
2023-04-24T02:03:16.340Z,0.27
2023-04-24T02:08:20.930Z,0.30
2023-04-24T02:13:26.261Z,0.30
2023-04-24T02:18:29.382Z,0.30
2023-04-24T02:23:35.335Z,0.30
2023-04-24T02:28:38.446Z,0.50
2023-04-24T02:33:41.562Z,0.53
2023-04-24T02:38:46.367Z,0.23
2023-04-24T02:43:50.007Z,0.40
2023-04-24T02:48:53.207Z,0.30
2023-04-24T02:53:57.611Z,0.60
2023-04-24T02:59:00.776Z,0.87
2023-04-24T03:04:05.333Z,1.00
2023-04-24T03:09:09.897Z,0.70
2023-04-24T03:14:13.009Z,1.03
2023-04-24T03:19:16.154Z,0.63
2023-04-24T03:24:49.786Z,0.80
2023-04-24T03:29:56.428Z,0.83
2023-04-24T03:35:04.508Z,0.93
2023-04-24T03:40:11.194Z,0.87
2023-04-24T03:45:15.609Z,1.10
2023-04-24T03:50:24.102Z,0.87
2023-04-24T03:55:28.945Z,1.10
2023-04-24T04:00:34.298Z,1.13
2023-04-24T04:06:12.063Z,1.10
2023-04-24T04:11:17.010Z,0.90
2023-04-24T04:16:21.838Z,0.90
2023-04-24T04:21:28.890Z,0.90
2023-04-24T04:26:42.271Z,0.90
2023-04-24T04:31:47.630Z,1.00
2023-04-24T04:36:51.892Z,0.90
2023-04-24T04:42:07.622Z,0.80
2023-04-24T04:47:17.184Z,1.10
2023-04-24T04:52:20.762Z,1.03
2023-04-24T04:57:31.101Z,1.13
2023-04-24T05:02:34.999Z,1.00
2023-04-24T05:07:38.586Z,1.23
2023-04-24T05:12:45.684Z,1.10
2023-04-24T05:17:49.496Z,1.50
2023-04-24T05:22:52.937Z,1.20
2023-04-24T05:28:01.508Z,1.00
2023-04-24T05:33:04.927Z,1.20
2023-04-24T05:38:11.172Z,1.10
2023-04-24T05:43:15.732Z,1.03
2023-04-24T05:48:18.903Z,1.50
2023-04-24T05:53:21.997Z,1.50
2023-04-24T05:58:27.042Z,1.30
2023-04-24T06:03:31.219Z,1.50
2023-04-24T06:08:34.712Z,1.30
2023-04-24T06:13:39.562Z,1.30
2023-04-24T06:19:05.579Z,1.10
2023-04-24T06:24:08.808Z,1.10
2023-04-24T06:29:13.292Z,1.10
2023-04-24T06:34:16.374Z,0.90
2023-04-24T06:39:19.556Z,1.10
2023-04-24T06:44:24.687Z,1.07
2023-04-24T06:49:27.729Z,1.00
2023-04-24T06:54:31.531Z,0.83
2023-04-24T06:59:36.052Z,1.03
2023-04-24T07:04:39.486Z,1.13
2023-04-24T07:09:43.556Z,1.00
2023-04-24T07:14:48.879Z,0.80
2023-04-24T07:19:52.073Z,0.60
2023-04-24T07:24:55.171Z,0.87
2023-04-24T07:29:59.586Z,0.60
2023-04-24T07:35:02.766Z,0.43
2023-04-24T07:40:06.688Z,0.50
2023-04-24T07:45:11.424Z,0.33
2023-04-24T07:50:14.709Z,0.60
2023-04-24T07:55:18.028Z,0.50
2023-04-24T08:00:22.909Z,0.50
2023-04-24T08:05:28.440Z,0.30
2023-04-24T08:10:31.703Z,0.23
2023-04-24T08:15:36.465Z,0.30
2023-04-24T08:20:39.814Z,0.20
2023-04-24T08:25:42.920Z,0.40
2023-04-24T08:30:47.918Z,0.30
2023-04-24T08:35:51.220Z,0.33
2023-04-24T08:40:54.918Z,0.30
2023-04-24T08:46:01.224Z,0.20
2023-04-24T08:51:07.593Z,0.27
2023-04-24T08:56:11.238Z,0.30
2023-04-24T09:01:15.901Z,0.30
2023-04-24T09:06:21.599Z,0.30
2023-04-24T09:11:27.133Z,0.60
2023-04-24T09:16:32.811Z,0.40
2023-04-24T09:21:37.816Z,0.40
2023-04-24T09:26:41.175Z,0.50
2023-04-24T09:31:46.294Z,0.87
2023-04-24T09:36:49.497Z,0.90
2023-04-24T09:41:54.638Z,0.53
2023-04-24T09:47:00.849Z,0.90
2023-04-24T09:52:08.506Z,0.90
2023-04-24T09:57:11.850Z,0.73
2023-04-24T10:02:21.858Z,0.70
2023-04-24T10:07:27.986Z,0.83
2023-04-24T10:12:32.512Z,0.93
2023-04-24T10:17:38.151Z,0.90
2023-04-24T10:22:42.651Z,0.93
2023-04-24T10:27:46.986Z,1.00
2023-04-24T10:32:51.761Z,0.90
2023-04-24T10:38:01.835Z,1.03
2023-04-24T10:43:07.232Z,0.70
2023-04-24T10:48:14.776Z,0.70
2023-04-24T10:53:20.391Z,0.90
2023-04-24T10:58:25.166Z,0.80
2023-04-24T11:03:30.918Z,0.97
2023-04-24T11:08:40.365Z,0.80
2023-04-24T11:14:07.345Z,0.80
2023-04-24T11:19:19.795Z,0.60
2023-04-24T11:24:31.620Z,0.67
2023-04-24T11:29:47.271Z,0.60
2023-04-24T11:34:53.082Z,0.60
2023-04-24T11:39:57.656Z,0.70
2023-04-24T11:45:02.949Z,0.40
2023-04-24T11:50:10.827Z,0.73
2023-04-24T11:55:27.594Z,0.93
2023-04-24T12:00:32.677Z,0.60
2023-04-24T12:05:37.839Z,0.67
2023-04-24T12:10:41.210Z,0.70
2023-04-24T12:15:44.641Z,0.50
2023-04-24T12:20:49.093Z,0.60
2023-04-24T12:25:56.491Z,0.60
2023-04-24T12:31:00.627Z,0.90
2023-04-24T12:36:06.361Z,0.80
2023-04-24T12:41:11.360Z,0.60
2023-04-24T12:46:16.910Z,0.70
2023-04-24T12:51:22.330Z,0.90
2023-04-24T12:56:25.794Z,0.80
2023-04-24T13:01:29.090Z,0.90
2023-04-24T13:06:33.665Z,0.90
2023-04-24T13:11:36.802Z,0.80
2023-04-24T13:16:39.999Z,0.70
2023-04-24T13:21:45.652Z,0.70
2023-04-24T13:26:48.749Z,0.80
2023-04-24T13:31:52.840Z,0.73
2023-04-24T13:36:59.098Z,1.50
2023-04-24T13:42:04.641Z,1.57
2023-04-24T13:47:08.460Z,1.53
2023-04-24T13:52:12.999Z,1.20
2023-04-24T13:57:17.136Z,1.30
2023-04-24T14:02:20.268Z,0.90
2023-04-24T14:07:25.195Z,0.97
2023-04-24T14:12:28.657Z,0.80
2023-04-24T14:17:31.819Z,0.83
2023-04-24T14:22:36.338Z,0.80
2023-04-24T14:27:40.952Z,1.20
2023-04-24T14:32:44.129Z,0.80
2023-04-24T14:37:49.383Z,0.73
2023-04-24T14:42:52.791Z,0.73
2023-04-24T14:47:56.406Z,1.00
2023-04-24T14:53:03.210Z,0.50
2023-04-24T14:58:06.413Z,1.00
2023-04-24T15:03:10.325Z,1.00
2023-04-24T15:08:14.974Z,1.23
2023-04-24T15:13:18.024Z,0.80
2023-04-24T15:18:21.069Z,1.20
2023-04-24T15:23:25.516Z,1.40
2023-04-24T15:28:28.666Z,1.07
2023-04-24T15:33:31.748Z,0.80
2023-04-24T15:38:36.184Z,0.80
2023-04-24T15:43:39.765Z,0.90
2023-04-24T15:48:46.486Z,0.60
2023-04-24T15:53:50.959Z,0.67
2023-04-24T15:58:54.082Z,0.70
2023-04-24T16:03:57.438Z,0.80
2023-04-24T16:09:03.622Z,0.80
2023-04-24T16:14:08.925Z,1.20
2023-04-24T16:19:13.266Z,0.90
2023-04-24T16:24:17.752Z,0.77
2023-04-24T16:29:22.365Z,0.70
2023-04-24T16:34:25.595Z,0.60
2023-04-24T16:39:30.094Z,0.63
2023-04-24T16:44:33.255Z,0.83
2023-04-24T16:49:36.524Z,0.87
2023-04-24T16:54:40.999Z,0.83
2023-04-24T16:59:44.120Z,0.50
2023-04-24T17:04:48.056Z,0.80
2023-04-24T17:09:52.664Z,0.50
2023-04-24T17:14:55.862Z,0.60
2023-04-24T17:20:01.527Z,0.60
2023-04-24T17:25:08.723Z,0.70
2023-04-24T17:30:12.977Z,0.63
2023-04-24T17:35:16.364Z,0.50
2023-04-24T17:40:20.807Z,0.40
2023-04-24T17:45:23.925Z,0.57
2023-04-24T17:50:27.141Z,0.37
2023-04-24T17:55:31.647Z,0.47
2023-04-24T18:00:35.914Z,0.40
2023-04-24T18:05:39.824Z,0.40
2023-04-24T18:10:44.972Z,0.40
2023-04-24T18:15:48.284Z,0.40
2023-04-24T18:20:51.420Z,0.37
2023-04-24T18:25:56.093Z,0.30
2023-04-24T18:30:59.413Z,0.40
2023-04-24T18:36:03.549Z,0.20
2023-04-24T18:41:08.058Z,0.20
2023-04-24T18:46:11.389Z,0.20
2023-04-24T18:51:14.546Z,0.30
2023-04-24T18:56:19.365Z,0.40
2023-04-24T19:01:23.214Z,0.30
2023-04-24T19:06:26.596Z,0.33
2023-04-24T19:11:31.654Z,0.30
2023-04-24T19:16:34.806Z,0.50
2023-04-24T19:21:38.165Z,0.30
2023-04-24T19:26:42.583Z,0.40
2023-04-24T19:31:45.697Z,0.30
2023-04-24T19:36:48.805Z,0.30
2023-04-24T19:41:53.257Z,0.60
2023-04-24T19:46:56.368Z,0.40
2023-04-24T19:51:59.501Z,0.40
2023-04-24T19:57:04.387Z,0.30
2023-04-24T20:02:07.513Z,0.40
2023-04-24T20:07:10.576Z,0.30
2023-04-24T20:12:15.231Z,0.40
2023-04-24T20:17:18.797Z,0.40
2023-04-24T20:22:21.926Z,0.40
2023-04-24T20:27:26.464Z,0.30
2023-04-24T20:32:29.680Z,0.20
2023-04-24T20:37:32.776Z,0.47
2023-04-24T20:42:38.230Z,0.33
2023-04-24T20:47:41.373Z,0.30
2023-04-24T20:52:44.580Z,0.30
2023-04-24T20:57:49.098Z,0.30
2023-04-24T21:02:52.261Z,0.53
2023-04-24T21:07:56.137Z,0.40
2023-04-24T21:13:01.119Z,0.20
2023-04-24T21:18:04.736Z,0.40
2023-04-24T21:23:07.956Z,0.40
2023-04-24T21:28:12.911Z,0.50
2023-04-24T21:33:16.044Z,0.47
2023-04-24T21:38:19.504Z,0.43
2023-04-24T21:43:30.831Z,0.60
2023-04-24T21:48:44.552Z,0.50
2023-04-24T21:53:47.743Z,0.40
2023-04-24T21:58:52.731Z,0.50
2023-04-24T22:03:56.242Z,0.40
2023-04-24T22:08:59.779Z,0.30
2023-04-24T22:14:04.337Z,0.30
2023-04-24T22:19:07.472Z,0.40
2023-04-24T22:24:10.647Z,0.40
2023-04-24T22:29:15.395Z,0.70
2023-04-24T22:34:19.614Z,0.50
2023-04-24T22:39:22.724Z,0.57
2023-04-24T22:44:27.250Z,0.60
2023-04-24T22:49:30.368Z,0.40
2023-04-24T22:54:34.723Z,0.50
2023-04-24T22:59:39.292Z,0.50
2023-04-24T23:04:42.378Z,0.57
2023-04-24T23:09:45.570Z,0.50
2023-04-24T23:14:50.511Z,0.87
2023-04-24T23:19:53.570Z,0.50
2023-04-24T23:24:56.738Z,0.40
2023-04-24T23:30:01.201Z,0.40
2023-04-24T23:35:04.749Z,0.80
2023-04-24T23:40:10.007Z,0.60
2023-04-24T23:45:14.466Z,0.50
2023-04-24T23:50:17.686Z,0.60
2023-04-24T23:55:21.022Z,0.80
